sensor_id;sensor_type;location;lat;lon;timestamp;P1;durP1;ratioP1;P2;durP2;ratioP2
1887;SDS011;944;51.574;6.980;2023-04-25T00:02:01;14.93;;;6.77;;
1887;SDS011;944;51.574;6.980;2023-04-25T00:04:31;26.63;;;6.13;;
1887;SDS011;944;51.574;6.980;2023-04-25T00:07:16;14.40;;;5.93;;
1887;SDS011;944;51.574;6.980;2023-04-25T00:09:59;31.23;;;12.53;;
1887;SDS011;944;51.574;6.980;2023-04-25T00:12:31;15.20;;;6.67;;
1887;SDS011;944;51.574;6.980;2023-04-25T00:14:59;17.70;;;5.53;;
1887;SDS011;944;51.574;6.980;2023-04-25T00:17:31;11.37;;;6.23;;
1887;SDS011;944;51.574;6.980;2023-04-25T00:19:59;18.03;;;6.00;;
1887;SDS011;944;51.574;6.980;2023-04-25T00:22:30;13.07;;;6.10;;
1887;SDS011;944;51.574;6.980;2023-04-25T00:25:00;17.73;;;5.47;;
1887;SDS011;944;51.574;6.980;2023-04-25T00:27:28;12.17;;;5.40;;
1887;SDS011;944;51.574;6.980;2023-04-25T00:29:55;18.90;;;6.60;;
1887;SDS011;944;51.574;6.980;2023-04-25T00:32:31;18.93;;;6.57;;
1887;SDS011;944;51.574;6.980;2023-04-25T00:35:11;13.67;;;6.67;;
1887;SDS011;944;51.574;6.980;2023-04-25T00:37:38;14.27;;;6.53;;
1887;SDS011;944;51.574;6.980;2023-04-25T00:40:10;13.10;;;6.07;;
1887;SDS011;944;51.574;6.980;2023-04-25T00:42:43;15.27;;;6.50;;
1887;SDS011;944;51.574;6.980;2023-04-25T00:45:12;15.07;;;7.03;;
1887;SDS011;944;51.574;6.980;2023-04-25T00:47:43;17.60;;;5.93;;
1887;SDS011;944;51.574;6.980;2023-04-25T00:50:12;21.53;;;6.13;;
1887;SDS011;944;51.574;6.980;2023-04-25T00:52:40;18.23;;;6.50;;
1887;SDS011;944;51.574;6.980;2023-04-25T00:55:13;16.30;;;6.37;;
1887;SDS011;944;51.574;6.980;2023-04-25T00:57:40;17.73;;;6.40;;
1887;SDS011;944;51.574;6.980;2023-04-25T01:00:18;18.00;;;6.93;;
1887;SDS011;944;51.574;6.980;2023-04-25T01:02:46;14.20;;;5.80;;
1887;SDS011;944;51.574;6.980;2023-04-25T01:05:13;18.50;;;6.70;;
1887;SDS011;944;51.574;6.980;2023-04-25T01:07:41;18.17;;;6.63;;
1887;SDS011;944;51.574;6.980;2023-04-25T01:13:02;14.13;;;6.70;;
1887;SDS011;944;51.574;6.980;2023-04-25T01:15:36;14.90;;;6.67;;
1887;SDS011;944;51.574;6.980;2023-04-25T01:18:05;14.30;;;7.00;;
1887;SDS011;944;51.574;6.980;2023-04-25T01:20:45;19.23;;;7.20;;
1887;SDS011;944;51.574;6.980;2023-04-25T01:23:14;21.70;;;7.53;;
1887;SDS011;944;51.574;6.980;2023-04-25T01:25:44;15.90;;;7.17;;
1887;SDS011;944;51.574;6.980;2023-04-25T01:28:17;19.77;;;7.13;;
1887;SDS011;944;51.574;6.980;2023-04-25T01:30:44;21.17;;;7.70;;
1887;SDS011;944;51.574;6.980;2023-04-25T01:33:15;14.10;;;6.93;;
1887;SDS011;944;51.574;6.980;2023-04-25T01:35:51;18.50;;;7.50;;
1887;SDS011;944;51.574;6.980;2023-04-25T01:38:35;22.80;;;8.00;;
1887;SDS011;944;51.574;6.980;2023-04-25T01:41:13;19.20;;;8.27;;
1887;SDS011;944;51.574;6.980;2023-04-25T01:43:42;24.07;;;8.03;;
1887;SDS011;944;51.574;6.980;2023-04-25T01:46:11;21.40;;;8.40;;
1887;SDS011;944;51.574;6.980;2023-04-25T01:48:47;25.13;;;7.07;;
1887;SDS011;944;51.574;6.980;2023-04-25T01:51:15;16.67;;;7.30;;
1887;SDS011;944;51.574;6.980;2023-04-25T01:53:47;18.97;;;7.40;;
1887;SDS011;944;51.574;6.980;2023-04-25T01:56:30;22.90;;;9.23;;
1887;SDS011;944;51.574;6.980;2023-04-25T01:59:05;18.13;;;7.80;;
1887;SDS011;944;51.574;6.980;2023-04-25T02:01:43;29.67;;;9.03;;
1887;SDS011;944;51.574;6.980;2023-04-25T02:04:28;21.47;;;7.63;;
1887;SDS011;944;51.574;6.980;2023-04-25T02:07:02;20.53;;;6.97;;
1887;SDS011;944;51.574;6.980;2023-04-25T02:10:25;25.27;;;7.63;;
1887;SDS011;944;51.574;6.980;2023-04-25T02:13:09;21.73;;;7.27;;
1887;SDS011;944;51.574;6.980;2023-04-25T02:15:43;13.43;;;6.70;;
1887;SDS011;944;51.574;6.980;2023-04-25T02:18:38;25.13;;;8.27;;
1887;SDS011;944;51.574;6.980;2023-04-25T02:21:10;12.77;;;6.07;;
1887;SDS011;944;51.574;6.980;2023-04-25T02:24:02;17.30;;;6.53;;
1887;SDS011;944;51.574;6.980;2023-04-25T02:26:36;18.17;;;7.07;;
1887;SDS011;944;51.574;6.980;2023-04-25T02:29:05;21.47;;;7.60;;
1887;SDS011;944;51.574;6.980;2023-04-25T02:31:36;17.93;;;7.07;;
1887;SDS011;944;51.574;6.980;2023-04-25T02:34:04;15.97;;;7.10;;
1887;SDS011;944;51.574;6.980;2023-04-25T02:36:31;18.00;;;6.13;;
1887;SDS011;944;51.574;6.980;2023-04-25T02:39:29;21.90;;;7.03;;
1887;SDS011;944;51.574;6.980;2023-04-25T02:42:03;21.80;;;6.67;;
1887;SDS011;944;51.574;6.980;2023-04-25T02:44:34;17.97;;;7.17;;
1887;SDS011;944;51.574;6.980;2023-04-25T02:47:06;27.40;;;7.60;;
1887;SDS011;944;51.574;6.980;2023-04-25T02:49:48;20.10;;;7.60;;
1887;SDS011;944;51.574;6.980;2023-04-25T02:52:20;30.13;;;7.83;;
1887;SDS011;944;51.574;6.980;2023-04-25T02:54:50;26.93;;;8.47;;
1887;SDS011;944;51.574;6.980;2023-04-25T03:04:02;19.20;;;7.60;;
1887;SDS011;944;51.574;6.980;2023-04-25T03:06:39;29.03;;;7.90;;
1887;SDS011;944;51.574;6.980;2023-04-25T03:09:18;22.30;;;8.43;;
1887;SDS011;944;51.574;6.980;2023-04-25T03:11:57;24.60;;;8.10;;
1887;SDS011;944;51.574;6.980;2023-04-25T03:14:36;25.10;;;8.60;;
1887;SDS011;944;51.574;6.980;2023-04-25T03:17:32;15.63;;;7.60;;
1887;SDS011;944;51.574;6.980;2023-04-25T03:20:06;17.00;;;7.90;;
1887;SDS011;944;51.574;6.980;2023-04-25T03:22:35;19.10;;;8.10;;
1887;SDS011;944;51.574;6.980;2023-04-25T03:25:05;20.00;;;8.60;;
1887;SDS011;944;51.574;6.980;2023-04-25T03:27:42;17.50;;;6.90;;
1887;SDS011;944;51.574;6.980;2023-04-25T03:30:20;25.53;;;8.60;;
1887;SDS011;944;51.574;6.980;2023-04-25T03:32:50;25.07;;;8.67;;
1887;SDS011;944;51.574;6.980;2023-04-25T03:35:39;27.40;;;10.27;;
1887;SDS011;944;51.574;6.980;2023-04-25T03:38:12;19.10;;;8.30;;
1887;SDS011;944;51.574;6.980;2023-04-25T03:40:41;17.67;;;6.80;;
1887;SDS011;944;51.574;6.980;2023-04-25T03:43:24;20.30;;;7.83;;
1887;SDS011;944;51.574;6.980;2023-04-25T03:46:05;29.20;;;9.07;;
1887;SDS011;944;51.574;6.980;2023-04-25T05:14:28;43.17;;;13.30;;
1887;SDS011;944;51.574;6.980;2023-04-25T05:17:56;53.17;;;16.70;;
1887;SDS011;944;51.574;6.980;2023-04-25T05:25:21;58.90;;;24.73;;
1887;SDS011;944;51.574;6.980;2023-04-25T06:14:43;44.43;;;16.67;;
1887;SDS011;944;51.574;6.980;2023-04-25T07:07:01;22.57;;;6.10;;
1887;SDS011;944;51.574;6.980;2023-04-25T09:08:12;9.10;;;3.30;;
1887;SDS011;944;51.574;6.980;2023-04-25T09:10:59;12.37;;;3.00;;
1887;SDS011;944;51.574;6.980;2023-04-25T09:14:11;14.93;;;2.90;;
1887;SDS011;944;51.574;6.980;2023-04-25T09:20:28;8.10;;;2.30;;
1887;SDS011;944;51.574;6.980;2023-04-25T09:23:15;8.30;;;2.33;;
1887;SDS011;944;51.574;6.980;2023-04-25T09:25:48;19.00;;;2.77;;
1887;SDS011;944;51.574;6.980;2023-04-25T09:28:26;22.03;;;2.40;;
1887;SDS011;944;51.574;6.980;2023-04-25T09:30:56;13.33;;;3.07;;
1887;SDS011;944;51.574;6.980;2023-04-25T09:33:41;8.13;;;2.30;;
1887;SDS011;944;51.574;6.980;2023-04-25T09:36:48;17.20;;;2.03;;
1887;SDS011;944;51.574;6.980;2023-04-25T09:39:19;10.90;;;2.00;;
1887;SDS011;944;51.574;6.980;2023-04-25T09:42:05;9.87;;;2.10;;
1887;SDS011;944;51.574;6.980;2023-04-25T09:44:47;15.43;;;2.30;;
1887;SDS011;944;51.574;6.980;2023-04-25T09:47:16;9.77;;;2.60;;
1887;SDS011;944;51.574;6.980;2023-04-25T09:49:48;6.20;;;2.10;;
1887;SDS011;944;51.574;6.980;2023-04-25T09:52:22;9.73;;;3.47;;
1887;SDS011;944;51.574;6.980;2023-04-25T09:57:53;8.93;;;2.40;;
1887;SDS011;944;51.574;6.980;2023-04-25T10:00:27;9.73;;;2.43;;
1887;SDS011;944;51.574;6.980;2023-04-25T10:03:01;17.07;;;2.87;;
1887;SDS011;944;51.574;6.980;2023-04-25T10:05:32;12.07;;;2.70;;
1887;SDS011;944;51.574;6.980;2023-04-25T10:08:01;8.90;;;2.80;;
1887;SDS011;944;51.574;6.980;2023-04-25T10:10:31;9.80;;;2.40;;
1887;SDS011;944;51.574;6.980;2023-04-25T10:13:02;7.13;;;2.50;;
1887;SDS011;944;51.574;6.980;2023-04-25T10:15:34;8.70;;;2.10;;
1887;SDS011;944;51.574;6.980;2023-04-25T10:18:02;13.13;;;2.50;;
1887;SDS011;944;51.574;6.980;2023-04-25T10:20:32;9.57;;;2.13;;
1887;SDS011;944;51.574;6.980;2023-04-25T10:23:03;7.37;;;2.17;;
1887;SDS011;944;51.574;6.980;2023-04-25T10:25:41;7.90;;;2.63;;
1887;SDS011;944;51.574;6.980;2023-04-25T10:28:08;6.30;;;2.50;;
1887;SDS011;944;51.574;6.980;2023-04-25T10:30:38;9.53;;;2.20;;
1887;SDS011;944;51.574;6.980;2023-04-25T10:33:29;10.93;;;2.37;;
1887;SDS011;944;51.574;6.980;2023-04-25T10:36:07;9.00;;;2.63;;
1887;SDS011;944;51.574;6.980;2023-04-25T10:38:37;6.40;;;2.43;;
1887;SDS011;944;51.574;6.980;2023-04-25T10:41:06;13.63;;;2.37;;
1887;SDS011;944;51.574;6.980;2023-04-25T10:43:37;8.37;;;3.20;;
1887;SDS011;944;51.574;6.980;2023-04-25T10:49:46;11.50;;;2.50;;
1887;SDS011;944;51.574;6.980;2023-04-25T10:52:18;10.30;;;2.30;;
1887;SDS011;944;51.574;6.980;2023-04-25T10:54:55;14.50;;;2.50;;
1887;SDS011;944;51.574;6.980;2023-04-25T10:57:31;13.83;;;3.07;;
1887;SDS011;944;51.574;6.980;2023-04-25T11:00:08;8.60;;;2.07;;
1887;SDS011;944;51.574;6.980;2023-04-25T11:02:46;7.80;;;2.03;;
1887;SDS011;944;51.574;6.980;2023-04-25T11:05:20;14.53;;;3.20;;
1887;SDS011;944;51.574;6.980;2023-04-25T11:07:57;9.57;;;2.40;;
1887;SDS011;944;51.574;6.980;2023-04-25T11:10:25;6.87;;;2.20;;
1887;SDS011;944;51.574;6.980;2023-04-25T11:12:54;15.40;;;3.10;;
1887;SDS011;944;51.574;6.980;2023-04-25T11:15:22;6.53;;;2.27;;
1887;SDS011;944;51.574;6.980;2023-04-25T11:17:50;10.77;;;2.00;;
1887;SDS011;944;51.574;6.980;2023-04-25T11:20:20;6.87;;;1.93;;
1887;SDS011;944;51.574;6.980;2023-04-25T11:22:48;9.80;;;1.80;;
1887;SDS011;944;51.574;6.980;2023-04-25T11:25:15;9.50;;;2.10;;
1887;SDS011;944;51.574;6.980;2023-04-25T11:27:49;12.03;;;2.10;;
1887;SDS011;944;51.574;6.980;2023-04-25T11:30:22;8.17;;;1.97;;
1887;SDS011;944;51.574;6.980;2023-04-25T11:32:53;7.03;;;2.23;;
1887;SDS011;944;51.574;6.980;2023-04-25T11:35:22;3.53;;;1.80;;
1887;SDS011;944;51.574;6.980;2023-04-25T11:37:50;7.90;;;2.30;;
1887;SDS011;944;51.574;6.980;2023-04-25T11:40:17;4.20;;;1.50;;
1887;SDS011;944;51.574;6.980;2023-04-25T11:42:45;6.53;;;1.70;;
1887;SDS011;944;51.574;6.980;2023-04-25T11:45:13;6.57;;;1.80;;
1887;SDS011;944;51.574;6.980;2023-04-25T11:51:23;6.13;;;2.20;;
1887;SDS011;944;51.574;6.980;2023-04-25T11:53:52;5.40;;;1.60;;
1887;SDS011;944;51.574;6.980;2023-04-25T11:56:20;5.57;;;1.90;;
1887;SDS011;944;51.574;6.980;2023-04-25T11:58:58;7.60;;;2.27;;
1887;SDS011;944;51.574;6.980;2023-04-25T12:01:28;3.90;;;1.70;;
1887;SDS011;944;51.574;6.980;2023-04-25T12:03:59;6.93;;;1.73;;
1887;SDS011;944;51.574;6.980;2023-04-25T12:06:55;4.53;;;1.60;;
1887;SDS011;944;51.574;6.980;2023-04-25T12:09:29;3.93;;;1.80;;
1887;SDS011;944;51.574;6.980;2023-04-25T12:12:00;6.80;;;1.83;;
1887;SDS011;944;51.574;6.980;2023-04-25T12:14:29;4.57;;;1.43;;
1887;SDS011;944;51.574;6.980;2023-04-25T12:16:58;8.43;;;1.90;;
1887;SDS011;944;51.574;6.980;2023-04-25T12:19:29;5.07;;;1.87;;
1887;SDS011;944;51.574;6.980;2023-04-25T12:22:18;6.47;;;2.13;;
1887;SDS011;944;51.574;6.980;2023-04-25T12:24:47;3.50;;;1.97;;
1887;SDS011;944;51.574;6.980;2023-04-25T12:27:18;4.20;;;1.70;;
1887;SDS011;944;51.574;6.980;2023-04-25T12:29:52;4.40;;;2.30;;
1887;SDS011;944;51.574;6.980;2023-04-25T12:32:23;4.60;;;1.80;;
1887;SDS011;944;51.574;6.980;2023-04-25T12:34:51;9.70;;;1.70;;
1887;SDS011;944;51.574;6.980;2023-04-25T12:37:25;8.30;;;1.97;;
1887;SDS011;944;51.574;6.980;2023-04-25T12:39:57;5.60;;;1.80;;
1887;SDS011;944;51.574;6.980;2023-04-25T12:42:24;8.50;;;2.60;;
1887;SDS011;944;51.574;6.980;2023-04-25T12:44:53;4.03;;;1.80;;
1887;SDS011;944;51.574;6.980;2023-04-25T12:47:21;3.13;;;1.60;;
1887;SDS011;944;51.574;6.980;2023-04-25T12:53:31;7.90;;;2.10;;
1887;SDS011;944;51.574;6.980;2023-04-25T12:56:01;5.20;;;2.03;;
1887;SDS011;944;51.574;6.980;2023-04-25T12:58:28;5.63;;;1.80;;
1887;SDS011;944;51.574;6.980;2023-04-25T13:01:01;7.53;;;2.10;;
1887;SDS011;944;51.574;6.980;2023-04-25T13:03:28;7.33;;;1.80;;
1887;SDS011;944;51.574;6.980;2023-04-25T13:09:37;5.30;;;2.20;;
1887;SDS011;944;51.574;6.980;2023-04-25T13:12:10;8.10;;;3.40;;
1887;SDS011;944;51.574;6.980;2023-04-25T13:14:37;6.13;;;1.90;;
1887;SDS011;944;51.574;6.980;2023-04-25T13:17:06;7.60;;;2.63;;
1887;SDS011;944;51.574;6.980;2023-04-25T13:19:33;6.13;;;2.63;;
1887;SDS011;944;51.574;6.980;2023-04-25T13:22:01;7.27;;;1.90;;
1887;SDS011;944;51.574;6.980;2023-04-25T13:24:32;15.60;;;2.00;;
1887;SDS011;944;51.574;6.980;2023-04-25T13:27:00;8.93;;;2.73;;
1887;SDS011;944;51.574;6.980;2023-04-25T13:29:36;7.20;;;2.37;;
1887;SDS011;944;51.574;6.980;2023-04-25T13:32:08;7.67;;;2.07;;
1887;SDS011;944;51.574;6.980;2023-04-25T13:34:37;4.53;;;1.70;;
1887;SDS011;944;51.574;6.980;2023-04-25T13:40:46;6.30;;;2.27;;
1887;SDS011;944;51.574;6.980;2023-04-25T13:46:17;3.77;;;1.77;;
1887;SDS011;944;51.574;6.980;2023-04-25T13:50:28;5.37;;;1.83;;
1887;SDS011;944;51.574;6.980;2023-04-25T13:53:41;5.47;;;2.00;;
1887;SDS011;944;51.574;6.980;2023-04-25T13:56:39;4.63;;;1.70;;
1887;SDS011;944;51.574;6.980;2023-04-25T14:25:27;3.97;;;1.70;;
1887;SDS011;944;51.574;6.980;2023-04-25T14:35:56;11.33;;;2.10;;
1887;SDS011;944;51.574;6.980;2023-04-25T14:49:05;4.17;;;2.10;;
1887;SDS011;944;51.574;6.980;2023-04-25T14:51:37;4.30;;;2.40;;
1887;SDS011;944;51.574;6.980;2023-04-25T14:54:04;5.10;;;1.70;;
1887;SDS011;944;51.574;6.980;2023-04-25T14:56:33;6.40;;;2.10;;
1887;SDS011;944;51.574;6.980;2023-04-25T14:59:02;7.53;;;2.40;;
1887;SDS011;944;51.574;6.980;2023-04-25T15:01:34;4.77;;;1.70;;
1887;SDS011;944;51.574;6.980;2023-04-25T15:04:04;6.90;;;2.27;;
1887;SDS011;944;51.574;6.980;2023-04-25T15:06:39;4.13;;;2.10;;
1887;SDS011;944;51.574;6.980;2023-04-25T15:09:09;6.80;;;2.10;;
1887;SDS011;944;51.574;6.980;2023-04-25T15:11:38;6.10;;;2.10;;
1887;SDS011;944;51.574;6.980;2023-04-25T15:14:10;4.10;;;1.73;;
1887;SDS011;944;51.574;6.980;2023-04-25T15:16:41;8.03;;;1.73;;
1887;SDS011;944;51.574;6.980;2023-04-25T15:23:07;2.97;;;1.80;;
1887;SDS011;944;51.574;6.980;2023-04-25T15:25:36;6.73;;;2.70;;
1887;SDS011;944;51.574;6.980;2023-04-25T15:28:03;5.77;;;1.93;;
1887;SDS011;944;51.574;6.980;2023-04-25T15:30:30;5.20;;;1.93;;
1887;SDS011;944;51.574;6.980;2023-04-25T15:32:59;4.63;;;2.10;;
1887;SDS011;944;51.574;6.980;2023-04-25T15:35:30;5.77;;;1.90;;
1887;SDS011;944;51.574;6.980;2023-04-25T15:38:10;2.90;;;1.77;;
1887;SDS011;944;51.574;6.980;2023-04-25T15:40:45;8.10;;;2.00;;
1887;SDS011;944;51.574;6.980;2023-04-25T15:43:29;7.50;;;2.10;;
1887;SDS011;944;51.574;6.980;2023-04-25T15:46:23;5.27;;;1.97;;
1887;SDS011;944;51.574;6.980;2023-04-25T15:51:45;4.30;;;1.37;;
1887;SDS011;944;51.574;6.980;2023-04-25T15:54:20;5.53;;;1.80;;
1887;SDS011;944;51.574;6.980;2023-04-25T15:57:00;6.00;;;1.87;;
1887;SDS011;944;51.574;6.980;2023-04-25T15:59:39;9.93;;;1.70;;
1887;SDS011;944;51.574;6.980;2023-04-25T16:02:17;9.17;;;2.37;;
1887;SDS011;944;51.574;6.980;2023-04-25T16:05:27;5.50;;;2.57;;
1887;SDS011;944;51.574;6.980;2023-04-25T16:07:59;3.73;;;1.70;;
1887;SDS011;944;51.574;6.980;2023-04-25T16:11:14;6.70;;;2.10;;
1887;SDS011;944;51.574;6.980;2023-04-25T16:13:55;5.10;;;2.03;;
1887;SDS011;944;51.574;6.980;2023-04-25T16:16:32;7.97;;;2.40;;
1887;SDS011;944;51.574;6.980;2023-04-25T16:19:14;7.87;;;2.03;;
1887;SDS011;944;51.574;6.980;2023-04-25T16:26:10;6.23;;;1.90;;
1887;SDS011;944;51.574;6.980;2023-04-25T16:28:37;5.63;;;1.73;;
1887;SDS011;944;51.574;6.980;2023-04-25T16:31:04;9.37;;;1.90;;
1887;SDS011;944;51.574;6.980;2023-04-25T16:33:33;3.20;;;1.83;;
1887;SDS011;944;51.574;6.980;2023-04-25T16:36:00;4.33;;;2.03;;
1887;SDS011;944;51.574;6.980;2023-04-25T16:38:27;3.13;;;2.10;;
1887;SDS011;944;51.574;6.980;2023-04-25T16:40:54;6.37;;;2.80;;
1887;SDS011;944;51.574;6.980;2023-04-25T16:43:30;6.23;;;2.60;;
1887;SDS011;944;51.574;6.980;2023-04-25T16:45:57;13.23;;;3.33;;
1887;SDS011;944;51.574;6.980;2023-04-25T16:48:25;11.50;;;2.50;;
1887;SDS011;944;51.574;6.980;2023-04-25T16:50:52;8.17;;;2.37;;
1887;SDS011;944;51.574;6.980;2023-04-25T16:53:19;3.17;;;1.90;;
1887;SDS011;944;51.574;6.980;2023-04-25T16:55:50;6.17;;;2.13;;
1887;SDS011;944;51.574;6.980;2023-04-25T16:58:17;4.77;;;2.33;;
1887;SDS011;944;51.574;6.980;2023-04-25T17:00:46;3.93;;;1.80;;
1887;SDS011;944;51.574;6.980;2023-04-25T17:03:13;7.13;;;1.90;;
1887;SDS011;944;51.574;6.980;2023-04-25T17:05:40;12.00;;;3.97;;
1887;SDS011;944;51.574;6.980;2023-04-25T17:08:07;10.03;;;4.00;;
1887;SDS011;944;51.574;6.980;2023-04-25T17:10:39;7.60;;;1.80;;
1887;SDS011;944;51.574;6.980;2023-04-25T17:13:06;6.97;;;2.00;;
1887;SDS011;944;51.574;6.980;2023-04-25T17:15:36;7.67;;;1.70;;
1887;SDS011;944;51.574;6.980;2023-04-25T17:21:50;6.83;;;1.90;;
1887;SDS011;944;51.574;6.980;2023-04-25T17:24:21;5.30;;;2.20;;
1887;SDS011;944;51.574;6.980;2023-04-25T17:26:48;6.27;;;1.97;;
1887;SDS011;944;51.574;6.980;2023-04-25T17:29:17;6.90;;;2.17;;
1887;SDS011;944;51.574;6.980;2023-04-25T17:31:47;6.57;;;2.13;;
1887;SDS011;944;51.574;6.980;2023-04-25T17:34:15;6.97;;;2.43;;
1887;SDS011;944;51.574;6.980;2023-04-25T17:36:47;10.60;;;2.60;;
1887;SDS011;944;51.574;6.980;2023-04-25T17:39:16;11.80;;;1.87;;
1887;SDS011;944;51.574;6.980;2023-04-25T17:41:45;10.70;;;2.30;;
1887;SDS011;944;51.574;6.980;2023-04-25T17:44:13;4.70;;;1.90;;
1887;SDS011;944;51.574;6.980;2023-04-25T17:46:40;14.60;;;2.07;;
1887;SDS011;944;51.574;6.980;2023-04-25T17:49:07;8.27;;;2.30;;
1887;SDS011;944;51.574;6.980;2023-04-25T17:51:35;6.07;;;2.00;;
1887;SDS011;944;51.574;6.980;2023-04-25T17:54:05;4.57;;;1.80;;
1887;SDS011;944;51.574;6.980;2023-04-25T17:56:34;11.33;;;2.50;;
1887;SDS011;944;51.574;6.980;2023-04-25T17:59:02;5.43;;;1.97;;
1887;SDS011;944;51.574;6.980;2023-04-25T18:03:10;4.70;;;1.80;;
1887;SDS011;944;51.574;6.980;2023-04-25T18:04:55;6.87;;;2.03;;
1887;SDS011;944;51.574;6.980;2023-04-25T18:07:58;2.40;;;1.87;;
1887;SDS011;944;51.574;6.980;2023-04-25T18:13:13;5.83;;;3.13;;
1887;SDS011;944;51.574;6.980;2023-04-25T18:15:42;4.43;;;1.80;;
1887;SDS011;944;51.574;6.980;2023-04-25T18:18:09;5.00;;;2.10;;
1887;SDS011;944;51.574;6.980;2023-04-25T18:20:44;5.90;;;2.20;;
1887;SDS011;944;51.574;6.980;2023-04-25T18:23:11;8.30;;;2.30;;
1887;SDS011;944;51.574;6.980;2023-04-25T18:26:11;9.80;;;2.23;;
1887;SDS011;944;51.574;6.980;2023-04-25T18:28:40;9.27;;;2.40;;
1887;SDS011;944;51.574;6.980;2023-04-25T18:31:07;8.80;;;2.50;;
1887;SDS011;944;51.574;6.980;2023-04-25T18:33:35;7.40;;;2.03;;
1887;SDS011;944;51.574;6.980;2023-04-25T18:36:02;6.93;;;1.93;;
1887;SDS011;944;51.574;6.980;2023-04-25T18:38:32;12.67;;;2.40;;
1887;SDS011;944;51.574;6.980;2023-04-25T18:44:30;8.83;;;2.23;;
1887;SDS011;944;51.574;6.980;2023-04-25T18:46:59;11.80;;;1.83;;
1887;SDS011;944;51.574;6.980;2023-04-25T18:49:26;8.30;;;1.90;;
1887;SDS011;944;51.574;6.980;2023-04-25T18:51:53;3.10;;;2.00;;
1887;SDS011;944;51.574;6.980;2023-04-25T18:54:21;5.50;;;2.10;;
1887;SDS011;944;51.574;6.980;2023-04-25T18:56:48;6.27;;;2.07;;
1887;SDS011;944;51.574;6.980;2023-04-25T18:59:15;7.80;;;2.10;;
1887;SDS011;944;51.574;6.980;2023-04-25T19:01:44;7.80;;;2.63;;
1887;SDS011;944;51.574;6.980;2023-04-25T19:04:13;6.03;;;1.80;;
1887;SDS011;944;51.574;6.980;2023-04-25T19:06:42;11.63;;;2.70;;
1887;SDS011;944;51.574;6.980;2023-04-25T19:09:10;6.77;;;1.73;;
1887;SDS011;944;51.574;6.980;2023-04-25T19:11:41;8.03;;;2.17;;
1887;SDS011;944;51.574;6.980;2023-04-25T19:14:20;3.90;;;1.63;;
1887;SDS011;944;51.574;6.980;2023-04-25T19:19:36;4.47;;;1.60;;
1887;SDS011;944;51.574;6.980;2023-04-25T19:22:07;3.43;;;1.67;;
1887;SDS011;944;51.574;6.980;2023-04-25T19:24:36;5.47;;;2.03;;
1887;SDS011;944;51.574;6.980;2023-04-25T19:27:05;8.03;;;2.83;;
1887;SDS011;944;51.574;6.980;2023-04-25T19:29:33;6.97;;;2.80;;
1887;SDS011;944;51.574;6.980;2023-04-25T19:32:09;8.73;;;2.43;;
1887;SDS011;944;51.574;6.980;2023-04-25T19:34:39;11.70;;;2.47;;
1887;SDS011;944;51.574;6.980;2023-04-25T19:37:06;9.87;;;2.93;;
1887;SDS011;944;51.574;6.980;2023-04-25T19:39:33;7.20;;;2.23;;
1887;SDS011;944;51.574;6.980;2023-04-25T19:42:01;13.03;;;2.27;;
1887;SDS011;944;51.574;6.980;2023-04-25T19:44:29;4.27;;;1.73;;
1887;SDS011;944;51.574;6.980;2023-04-25T19:46:56;16.17;;;2.63;;
1887;SDS011;944;51.574;6.980;2023-04-25T19:49:25;6.00;;;2.20;;
1887;SDS011;944;51.574;6.980;2023-04-25T19:51:52;7.77;;;2.40;;
1887;SDS011;944;51.574;6.980;2023-04-25T19:54:22;8.83;;;2.33;;
1887;SDS011;944;51.574;6.980;2023-04-25T19:56:49;15.23;;;2.17;;
1887;SDS011;944;51.574;6.980;2023-04-25T19:59:16;12.60;;;2.27;;
1887;SDS011;944;51.574;6.980;2023-04-25T20:01:45;8.53;;;2.73;;
1887;SDS011;944;51.574;6.980;2023-04-25T20:04:12;4.80;;;2.50;;
1887;SDS011;944;51.574;6.980;2023-04-25T20:06:43;12.90;;;2.70;;
1887;SDS011;944;51.574;6.980;2023-04-25T20:09:10;9.03;;;2.60;;
1887;SDS011;944;51.574;6.980;2023-04-25T20:11:38;7.20;;;2.10;;
1887;SDS011;944;51.574;6.980;2023-04-25T20:14:25;11.33;;;3.10;;
1887;SDS011;944;51.574;6.980;2023-04-25T20:17:29;8.80;;;2.90;;
1887;SDS011;944;51.574;6.980;2023-04-25T21:41:41;13.53;;;3.50;;
1887;SDS011;944;51.574;6.980;2023-04-25T21:44:21;10.13;;;3.50;;
1887;SDS011;944;51.574;6.980;2023-04-25T21:46:54;8.13;;;3.03;;
1887;SDS011;944;51.574;6.980;2023-04-25T21:49:42;13.47;;;2.97;;
1887;SDS011;944;51.574;6.980;2023-04-25T21:52:16;9.57;;;4.20;;
1887;SDS011;944;51.574;6.980;2023-04-25T21:54:46;21.93;;;4.40;;
1887;SDS011;944;51.574;6.980;2023-04-25T21:57:23;12.70;;;5.37;;
1887;SDS011;944;51.574;6.980;2023-04-25T21:59:57;12.87;;;4.70;;
1887;SDS011;944;51.574;6.980;2023-04-25T22:02:51;9.10;;;4.40;;
1887;SDS011;944;51.574;6.980;2023-04-25T22:09:07;16.23;;;4.67;;
1887;SDS011;944;51.574;6.980;2023-04-25T22:11:35;16.63;;;5.13;;
1887;SDS011;944;51.574;6.980;2023-04-25T22:25:39;8.10;;;3.93;;
1887;SDS011;944;51.574;6.980;2023-04-25T22:28:12;10.93;;;4.00;;
1887;SDS011;944;51.574;6.980;2023-04-25T22:30:52;15.63;;;5.30;;
1887;SDS011;944;51.574;6.980;2023-04-25T22:33:24;10.37;;;5.63;;
1887;SDS011;944;51.574;6.980;2023-04-25T22:35:58;10.13;;;4.07;;
1887;SDS011;944;51.574;6.980;2023-04-25T22:38:28;11.23;;;4.50;;
1887;SDS011;944;51.574;6.980;2023-04-25T22:40:58;5.90;;;3.70;;
1887;SDS011;944;51.574;6.980;2023-04-25T22:43:25;13.50;;;4.27;;
1887;SDS011;944;51.574;6.980;2023-04-25T23:13:01;11.70;;;4.70;;
1887;SDS011;944;51.574;6.980;2023-04-25T23:16:23;7.60;;;4.27;;
1887;SDS011;944;51.574;6.980;2023-04-25T23:23:26;12.30;;;4.20;;
1887;SDS011;944;51.574;6.980;2023-04-25T23:25:54;17.50;;;4.57;;
1887;SDS011;944;51.574;6.980;2023-04-25T23:28:29;10.87;;;4.07;;
1887;SDS011;944;51.574;6.980;2023-04-25T23:35:15;13.23;;;4.57;;
